sensor_id;sensor_type;location;lat;lon;timestamp;temperature;humidity
11965;DHT22;6042;41.326;19.826;2022-09-01T00:00:00;23.40;99.90
11965;DHT22;6042;41.326;19.826;2022-09-01T00:02:33;23.30;99.90
11965;DHT22;6042;41.326;19.826;2022-09-01T00:05:06;23.30;99.90
11965;DHT22;6042;41.326;19.826;2022-09-01T00:07:36;23.30;99.90
11965;DHT22;6042;41.326;19.826;2022-09-01T00:10:07;23.30;99.90
11965;DHT22;6042;41.326;19.826;2022-09-01T00:12:36;23.20;99.90
11965;DHT22;6042;41.326;19.826;2022-09-01T00:15:08;23.10;99.90
11965;DHT22;6042;41.326;19.826;2022-09-01T00:17:39;23.00;99.90
11965;DHT22;6042;41.326;19.826;2022-09-01T00:20:08;22.90;99.90
11965;DHT22;6042;41.326;19.826;2022-09-01T00:22:39;22.90;99.90
11965;DHT22;6042;41.326;19.826;2022-09-01T00:25:08;22.90;99.90
11965;DHT22;6042;41.326;19.826;2022-09-01T00:27:36;22.90;99.90
11965;DHT22;6042;41.326;19.826;2022-09-01T00:30:06;23.00;99.90
11965;DHT22;6042;41.326;19.826;2022-09-01T00:32:35;22.90;99.90
11965;DHT22;6042;41.326;19.826;2022-09-01T00:35:04;22.90;99.90
11965;DHT22;6042;41.326;19.826;2022-09-01T00:37:34;22.80;99.90
11965;DHT22;6042;41.326;19.826;2022-09-01T00:40:07;22.80;99.90
11965;DHT22;6042;41.326;19.826;2022-09-01T00:42:37;22.80;99.90
11965;DHT22;6042;41.326;19.826;2022-09-01T00:45:07;22.90;99.90
11965;DHT22;6042;41.326;19.826;2022-09-01T00:47:36;23.00;99.90
11965;DHT22;6042;41.326;19.826;2022-09-01T00:50:07;22.90;99.90
11965;DHT22;6042;41.326;19.826;2022-09-01T00:52:42;23.00;99.90
11965;DHT22;6042;41.326;19.826;2022-09-01T00:55:17;22.90;99.90
11965;DHT22;6042;41.326;19.826;2022-09-01T00:57:46;22.90;99.90
11965;DHT22;6042;41.326;19.826;2022-09-01T01:00:18;22.90;99.90
11965;DHT22;6042;41.326;19.826;2022-09-01T01:02:48;22.90;99.90
11965;DHT22;6042;41.326;19.826;2022-09-01T01:05:23;22.90;99.90
11965;DHT22;6042;41.326;19.826;2022-09-01T01:07:57;22.90;99.90
11965;DHT22;6042;41.326;19.826;2022-09-01T01:10:31;22.90;99.90
11965;DHT22;6042;41.326;19.826;2022-09-01T01:13:06;22.90;99.90
11965;DHT22;6042;41.326;19.826;2022-09-01T01:15:36;22.70;99.90
11965;DHT22;6042;41.326;19.826;2022-09-01T01:18:05;22.70;99.90
11965;DHT22;6042;41.326;19.826;2022-09-01T01:20:36;22.80;99.90
11965;DHT22;6042;41.326;19.826;2022-09-01T01:23:29;22.80;99.90
11965;DHT22;6042;41.326;19.826;2022-09-01T01:26:06;22.80;99.90
11965;DHT22;6042;41.326;19.826;2022-09-01T01:28:37;22.50;99.90
11965;DHT22;6042;41.326;19.826;2022-09-01T01:31:09;22.60;99.90
11965;DHT22;6042;41.326;19.826;2022-09-01T01:33:41;22.60;99.90
11965;DHT22;6042;41.326;19.826;2022-09-01T01:36:20;22.60;99.90
11965;DHT22;6042;41.326;19.826;2022-09-01T01:39:05;22.70;99.90
11965;DHT22;6042;41.326;19.826;2022-09-01T01:41:37;22.60;99.90
11965;DHT22;6042;41.326;19.826;2022-09-01T01:44:09;22.50;99.90
11965;DHT22;6042;41.326;19.826;2022-09-01T01:46:40;22.60;99.90
11965;DHT22;6042;41.326;19.826;2022-09-01T01:49:10;22.60;99.90
11965;DHT22;6042;41.326;19.826;2022-09-01T01:51:41;22.50;99.90
11965;DHT22;6042;41.326;19.826;2022-09-01T01:54:11;22.50;99.90
11965;DHT22;6042;41.326;19.826;2022-09-01T01:56:41;22.50;99.90
11965;DHT22;6042;41.326;19.826;2022-09-01T01:59:10;22.40;99.90
11965;DHT22;6042;41.326;19.826;2022-09-01T02:01:44;22.40;99.90
11965;DHT22;6042;41.326;19.826;2022-09-01T02:04:18;22.50;99.90
11965;DHT22;6042;41.326;19.826;2022-09-01T02:06:48;22.50;99.90
11965;DHT22;6042;41.326;19.826;2022-09-01T02:09:19;22.40;99.90
11965;DHT22;6042;41.326;19.826;2022-09-01T02:11:52;22.40;99.90
11965;DHT22;6042;41.326;19.826;2022-09-01T02:14:25;22.40;99.90
11965;DHT22;6042;41.326;19.826;2022-09-01T02:16:54;22.40;99.90
11965;DHT22;6042;41.326;19.826;2022-09-01T02:19:22;22.40;99.90
11965;DHT22;6042;41.326;19.826;2022-09-01T02:21:52;22.30;99.90
11965;DHT22;6042;41.326;19.826;2022-09-01T02:24:22;22.40;99.90
11965;DHT22;6042;41.326;19.826;2022-09-01T02:26:54;22.30;99.90
11965;DHT22;6042;41.326;19.826;2022-09-01T02:29:29;22.30;99.90
11965;DHT22;6042;41.326;19.826;2022-09-01T02:32:06;22.30;99.90
11965;DHT22;6042;41.326;19.826;2022-09-01T02:34:34;22.30;99.90
11965;DHT22;6042;41.326;19.826;2022-09-01T02:37:06;22.30;99.90
11965;DHT22;6042;41.326;19.826;2022-09-01T02:39:34;22.30;99.90
11965;DHT22;6042;41.326;19.826;2022-09-01T02:42:05;22.30;99.90
11965;DHT22;6042;41.326;19.826;2022-09-01T02:44:36;22.40;99.90
11965;DHT22;6042;41.326;19.826;2022-09-01T02:47:07;22.20;99.90
11965;DHT22;6042;41.326;19.826;2022-09-01T02:49:36;22.30;99.90
11965;DHT22;6042;41.326;19.826;2022-09-01T02:52:05;22.40;99.90
11965;DHT22;6042;41.326;19.826;2022-09-01T02:54:34;22.40;99.90
11965;DHT22;6042;41.326;19.826;2022-09-01T02:57:05;22.40;99.90
11965;DHT22;6042;41.326;19.826;2022-09-01T02:59:35;22.50;99.90
11965;DHT22;6042;41.326;19.826;2022-09-01T03:02:11;22.60;99.90
11965;DHT22;6042;41.326;19.826;2022-09-01T03:04:39;22.60;99.90
11965;DHT22;6042;41.326;19.826;2022-09-01T03:07:08;22.60;99.90
11965;DHT22;6042;41.326;19.826;2022-09-01T03:09:37;22.60;99.90
11965;DHT22;6042;41.326;19.826;2022-09-01T03:12:09;22.60;99.90
11965;DHT22;6042;41.326;19.826;2022-09-01T03:14:37;22.60;99.90
11965;DHT22;6042;41.326;19.826;2022-09-01T03:17:06;22.60;99.90
11965;DHT22;6042;41.326;19.826;2022-09-01T03:19:34;22.60;99.90
11965;DHT22;6042;41.326;19.826;2022-09-01T03:22:11;22.50;99.90
11965;DHT22;6042;41.326;19.826;2022-09-01T03:24:40;22.50;99.90
11965;DHT22;6042;41.326;19.826;2022-09-01T03:27:11;22.50;99.90
11965;DHT22;6042;41.326;19.826;2022-09-01T03:29:39;22.40;99.90
11965;DHT22;6042;41.326;19.826;2022-09-01T03:32:08;22.40;99.90
11965;DHT22;6042;41.326;19.826;2022-09-01T03:34:37;22.30;99.90
11965;DHT22;6042;41.326;19.826;2022-09-01T03:37:06;22.40;99.90
11965;DHT22;6042;41.326;19.826;2022-09-01T03:39:36;22.40;99.90
11965;DHT22;6042;41.326;19.826;2022-09-01T03:42:05;22.40;99.90
11965;DHT22;6042;41.326;19.826;2022-09-01T03:44:40;22.30;99.90
11965;DHT22;6042;41.326;19.826;2022-09-01T03:47:13;22.20;99.90
11965;DHT22;6042;41.326;19.826;2022-09-01T03:49:43;22.20;99.90
11965;DHT22;6042;41.326;19.826;2022-09-01T03:52:16;22.30;99.90
11965;DHT22;6042;41.326;19.826;2022-09-01T03:54:47;22.30;99.90
11965;DHT22;6042;41.326;19.826;2022-09-01T03:57:20;22.20;99.90
11965;DHT22;6042;41.326;19.826;2022-09-01T03:59:50;22.20;99.90
11965;DHT22;6042;41.326;19.826;2022-09-01T04:02:21;22.10;99.90
11965;DHT22;6042;41.326;19.826;2022-09-01T04:04:55;22.10;99.90
11965;DHT22;6042;41.326;19.826;2022-09-01T04:07:25;22.00;99.90
11965;DHT22;6042;41.326;19.826;2022-09-01T04:09:55;22.00;99.90
11965;DHT22;6042;41.326;19.826;2022-09-01T04:12:23;22.00;99.90
11965;DHT22;6042;41.326;19.826;2022-09-01T04:14:53;22.00;99.90
11965;DHT22;6042;41.326;19.826;2022-09-01T04:17:22;21.90;99.90
11965;DHT22;6042;41.326;19.826;2022-09-01T04:20:09;22.00;99.90
11965;DHT22;6042;41.326;19.826;2022-09-01T04:22:39;21.90;99.90
11965;DHT22;6042;41.326;19.826;2022-09-01T04:25:08;22.00;99.90
11965;DHT22;6042;41.326;19.826;2022-09-01T04:27:37;22.00;99.90
11965;DHT22;6042;41.326;19.826;2022-09-01T04:30:10;22.00;99.90
11965;DHT22;6042;41.326;19.826;2022-09-01T04:32:44;22.00;99.90
11965;DHT22;6042;41.326;19.826;2022-09-01T04:35:14;22.00;99.90
11965;DHT22;6042;41.326;19.826;2022-09-01T04:37:45;22.00;99.90
11965;DHT22;6042;41.326;19.826;2022-09-01T04:40:15;22.10;99.90
11965;DHT22;6042;41.326;19.826;2022-09-01T04:42:45;22.10;99.90
11965;DHT22;6042;41.326;19.826;2022-09-01T04:45:16;22.10;99.90
11965;DHT22;6042;41.326;19.826;2022-09-01T04:47:49;22.00;99.90
11965;DHT22;6042;41.326;19.826;2022-09-01T04:50:19;22.10;99.90
11965;DHT22;6042;41.326;19.826;2022-09-01T04:53:07;22.10;99.90
11965;DHT22;6042;41.326;19.826;2022-09-01T04:55:42;22.10;99.90
11965;DHT22;6042;41.326;19.826;2022-09-01T04:58:17;22.00;99.90
11965;DHT22;6042;41.326;19.826;2022-09-01T05:00:49;21.90;99.90
11965;DHT22;6042;41.326;19.826;2022-09-01T05:03:20;21.90;99.90
11965;DHT22;6042;41.326;19.826;2022-09-01T05:06:15;22.10;99.90
11965;DHT22;6042;41.326;19.826;2022-09-01T05:08:57;22.20;99.90
11965;DHT22;6042;41.326;19.826;2022-09-01T05:11:52;22.20;99.90
11965;DHT22;6042;41.326;19.826;2022-09-01T05:14:28;22.20;99.90
11965;DHT22;6042;41.326;19.826;2022-09-01T05:16:58;22.20;99.90
11965;DHT22;6042;41.326;19.826;2022-09-01T05:19:28;22.20;99.90
11965;DHT22;6042;41.326;19.826;2022-09-01T05:21:59;22.10;99.90
11965;DHT22;6042;41.326;19.826;2022-09-01T05:24:31;22.00;99.90
11965;DHT22;6042;41.326;19.826;2022-09-01T05:27:09;22.10;99.90
11965;DHT22;6042;41.326;19.826;2022-09-01T05:29:43;22.10;99.90
11965;DHT22;6042;41.326;19.826;2022-09-01T05:32:14;22.20;99.90
11965;DHT22;6042;41.326;19.826;2022-09-01T05:34:43;22.30;99.90
11965;DHT22;6042;41.326;19.826;2022-09-01T05:37:13;22.40;99.90
11965;DHT22;6042;41.326;19.826;2022-09-01T05:39:42;22.50;99.90
11965;DHT22;6042;41.326;19.826;2022-09-01T05:42:11;22.50;99.90
11965;DHT22;6042;41.326;19.826;2022-09-01T05:44:39;22.60;99.90
11965;DHT22;6042;41.326;19.826;2022-09-01T05:47:15;22.70;99.90
11965;DHT22;6042;41.326;19.826;2022-09-01T05:49:48;22.80;99.90
11965;DHT22;6042;41.326;19.826;2022-09-01T05:52:17;22.80;99.90
11965;DHT22;6042;41.326;19.826;2022-09-01T05:54:47;22.90;99.90
11965;DHT22;6042;41.326;19.826;2022-09-01T05:57:17;23.00;99.90
11965;DHT22;6042;41.326;19.826;2022-09-01T06:00:04;23.00;99.90
11965;DHT22;6042;41.326;19.826;2022-09-01T06:02:40;23.20;99.90
11965;DHT22;6042;41.326;19.826;2022-09-01T06:05:17;23.40;99.90
11965;DHT22;6042;41.326;19.826;2022-09-01T06:07:49;23.40;99.90
11965;DHT22;6042;41.326;19.826;2022-09-01T06:10:19;23.60;99.90
11965;DHT22;6042;41.326;19.826;2022-09-01T06:12:48;23.70;99.90
11965;DHT22;6042;41.326;19.826;2022-09-01T06:15:24;23.80;99.90
11965;DHT22;6042;41.326;19.826;2022-09-01T06:17:59;23.90;99.90
11965;DHT22;6042;41.326;19.826;2022-09-01T06:20:31;24.00;99.90
11965;DHT22;6042;41.326;19.826;2022-09-01T06:23:00;24.00;99.90
11965;DHT22;6042;41.326;19.826;2022-09-01T06:25:29;24.10;99.90
11965;DHT22;6042;41.326;19.826;2022-09-01T06:27:59;24.30;99.90
11965;DHT22;6042;41.326;19.826;2022-09-01T06:30:31;24.40;99.90
11965;DHT22;6042;41.326;19.826;2022-09-01T06:33:10;24.50;99.90
11965;DHT22;6042;41.326;19.826;2022-09-01T06:35:45;24.60;99.90
11965;DHT22;6042;41.326;19.826;2022-09-01T06:38:18;24.70;99.90
11965;DHT22;6042;41.326;19.826;2022-09-01T06:40:48;24.90;99.90
11965;DHT22;6042;41.326;19.826;2022-09-01T06:43:21;24.90;99.90
11965;DHT22;6042;41.326;19.826;2022-09-01T06:45:50;24.90;99.90
11965;DHT22;6042;41.326;19.826;2022-09-01T06:48:26;25.00;99.90
11965;DHT22;6042;41.326;19.826;2022-09-01T06:51:03;25.10;99.90
11965;DHT22;6042;41.326;19.826;2022-09-01T06:53:50;25.10;99.90
11965;DHT22;6042;41.326;19.826;2022-09-01T06:56:26;25.10;99.90
11965;DHT22;6042;41.326;19.826;2022-09-01T06:59:16;25.30;99.90
11965;DHT22;6042;41.326;19.826;2022-09-01T07:01:48;25.30;99.90
11965;DHT22;6042;41.326;19.826;2022-09-01T07:04:27;25.40;99.90
11965;DHT22;6042;41.326;19.826;2022-09-01T07:07:02;25.50;99.90
11965;DHT22;6042;41.326;19.826;2022-09-01T07:10:10;25.60;99.90
11965;DHT22;6042;41.326;19.826;2022-09-01T07:12:56;25.70;99.90
11965;DHT22;6042;41.326;19.826;2022-09-01T07:15:37;25.90;99.90
11965;DHT22;6042;41.326;19.826;2022-09-01T07:18:30;26.00;99.90
11965;DHT22;6042;41.326;19.826;2022-09-01T07:21:05;26.00;99.90
11965;DHT22;6042;41.326;19.826;2022-09-01T07:23:55;25.80;99.90
11965;DHT22;6042;41.326;19.826;2022-09-01T07:27:04;26.00;99.90
11965;DHT22;6042;41.326;19.826;2022-09-01T07:29:35;26.10;99.90
11965;DHT22;6042;41.326;19.826;2022-09-01T07:32:08;26.20;99.90
11965;DHT22;6042;41.326;19.826;2022-09-01T07:34:57;26.30;99.90
11965;DHT22;6042;41.326;19.826;2022-09-01T07:37:29;26.40;99.90
11965;DHT22;6042;41.326;19.826;2022-09-01T07:40:19;26.50;99.90
11965;DHT22;6042;41.326;19.826;2022-09-01T07:43:26;26.70;99.90
11965;DHT22;6042;41.326;19.826;2022-09-01T07:46:18;26.90;99.90
11965;DHT22;6042;41.326;19.826;2022-09-01T07:49:05;26.90;99.90
11965;DHT22;6042;41.326;19.826;2022-09-01T07:51:55;26.80;99.90
11965;DHT22;6042;41.326;19.826;2022-09-01T07:54:28;26.90;99.90
11965;DHT22;6042;41.326;19.826;2022-09-01T07:56:57;27.10;99.90
11965;DHT22;6042;41.326;19.826;2022-09-01T07:59:26;27.20;99.90
11965;DHT22;6042;41.326;19.826;2022-09-01T08:02:02;27.40;99.90
11965;DHT22;6042;41.326;19.826;2022-09-01T08:04:32;27.50;99.90
11965;DHT22;6042;41.326;19.826;2022-09-01T08:07:03;27.60;99.90
11965;DHT22;6042;41.326;19.826;2022-09-01T08:09:35;27.70;99.90
11965;DHT22;6042;41.326;19.826;2022-09-01T08:12:11;27.80;99.90
11965;DHT22;6042;41.326;19.826;2022-09-01T08:14:49;28.00;99.90
11965;DHT22;6042;41.326;19.826;2022-09-01T08:17:40;28.10;99.90
11965;DHT22;6042;41.326;19.826;2022-09-01T08:20:19;28.20;99.90
11965;DHT22;6042;41.326;19.826;2022-09-01T08:22:51;28.30;99.50
11965;DHT22;6042;41.326;19.826;2022-09-01T08:25:28;28.30;99.50
11965;DHT22;6042;41.326;19.826;2022-09-01T08:27:58;28.30;99.50
11965;DHT22;6042;41.326;19.826;2022-09-01T08:30:28;28.40;99.40
11965;DHT22;6042;41.326;19.826;2022-09-01T08:32:59;28.50;99.50
11965;DHT22;6042;41.326;19.826;2022-09-01T08:35:38;28.60;99.40
11965;DHT22;6042;41.326;19.826;2022-09-01T08:38:09;28.80;99.10
11965;DHT22;6042;41.326;19.826;2022-09-01T08:40:42;28.80;98.80
11965;DHT22;6042;41.326;19.826;2022-09-01T08:43:28;28.90;98.70
11965;DHT22;6042;41.326;19.826;2022-09-01T08:46:05;28.90;98.70
11965;DHT22;6042;41.326;19.826;2022-09-01T08:48:39;28.70;98.60
11965;DHT22;6042;41.326;19.826;2022-09-01T08:51:39;28.90;98.90
11965;DHT22;6042;41.326;19.826;2022-09-01T08:54:19;29.10;98.30
11965;DHT22;6042;41.326;19.826;2022-09-01T08:57:00;29.20;98.10
11965;DHT22;6042;41.326;19.826;2022-09-01T08:59:58;29.20;98.30
11965;DHT22;6042;41.326;19.826;2022-09-01T09:02:41;29.30;98.30
11965;DHT22;6042;41.326;19.826;2022-09-01T09:05:27;29.30;98.10
11965;DHT22;6042;41.326;19.826;2022-09-01T09:08:07;29.20;98.00
11965;DHT22;6042;41.326;19.826;2022-09-01T09:10:50;29.20;98.10
11965;DHT22;6042;41.326;19.826;2022-09-01T09:13:32;29.20;98.00
11965;DHT22;6042;41.326;19.826;2022-09-01T09:16:07;28.80;97.30
11965;DHT22;6042;41.326;19.826;2022-09-01T09:18:41;28.60;97.30
11965;DHT22;6042;41.326;19.826;2022-09-01T09:21:31;28.70;97.10
11965;DHT22;6042;41.326;19.826;2022-09-01T09:24:07;28.90;96.30
11965;DHT22;6042;41.326;19.826;2022-09-01T09:26:37;29.20;96.30
11965;DHT22;6042;41.326;19.826;2022-09-01T09:29:10;29.20;95.90
11965;DHT22;6042;41.326;19.826;2022-09-01T09:31:40;29.20;95.60
11965;DHT22;6042;41.326;19.826;2022-09-01T09:34:30;29.40;95.70
11965;DHT22;6042;41.326;19.826;2022-09-01T09:37:22;29.60;95.40
11965;DHT22;6042;41.326;19.826;2022-09-01T09:40:07;29.70;95.20
11965;DHT22;6042;41.326;19.826;2022-09-01T09:42:37;29.80;94.70
11965;DHT22;6042;41.326;19.826;2022-09-01T09:45:20;29.70;94.60
11965;DHT22;6042;41.326;19.826;2022-09-01T09:47:50;29.60;94.90
11965;DHT22;6042;41.326;19.826;2022-09-01T09:50:22;29.70;95.00
11965;DHT22;6042;41.326;19.826;2022-09-01T09:53:08;29.80;95.10
11965;DHT22;6042;41.326;19.826;2022-09-01T09:55:51;29.70;94.90
11965;DHT22;6042;41.326;19.826;2022-09-01T09:58:25;29.60;94.80
11965;DHT22;6042;41.326;19.826;2022-09-01T10:01:06;29.70;94.80
11965;DHT22;6042;41.326;19.826;2022-09-01T10:03:40;29.70;94.80
11965;DHT22;6042;41.326;19.826;2022-09-01T10:06:11;29.90;94.50
11965;DHT22;6042;41.326;19.826;2022-09-01T10:08:44;30.10;94.50
11965;DHT22;6042;41.326;19.826;2022-09-01T10:11:29;30.10;94.20
11965;DHT22;6042;41.326;19.826;2022-09-01T10:14:06;30.20;93.80
11965;DHT22;6042;41.326;19.826;2022-09-01T10:16:53;30.00;94.30
11965;DHT22;6042;41.326;19.826;2022-09-01T10:19:28;30.00;94.30
11965;DHT22;6042;41.326;19.826;2022-09-01T10:22:02;30.10;94.50
11965;DHT22;6042;41.326;19.826;2022-09-01T10:24:33;30.30;94.00
11965;DHT22;6042;41.326;19.826;2022-09-01T10:27:15;30.40;93.60
11965;DHT22;6042;41.326;19.826;2022-09-01T10:29:48;30.50;93.20
11965;DHT22;6042;41.326;19.826;2022-09-01T10:32:41;30.50;93.30
11965;DHT22;6042;41.326;19.826;2022-09-01T10:35:20;30.50;93.60
11965;DHT22;6042;41.326;19.826;2022-09-01T10:37:50;30.50;93.30
11965;DHT22;6042;41.326;19.826;2022-09-01T10:40:34;30.80;93.10
11965;DHT22;6042;41.326;19.826;2022-09-01T10:43:35;31.00;92.60
11965;DHT22;6042;41.326;19.826;2022-09-01T10:55:22;31.30;92.40
11965;DHT22;6042;41.326;19.826;2022-09-01T10:57:57;31.40;92.10
11965;DHT22;6042;41.326;19.826;2022-09-01T11:00:49;31.30;91.90
11965;DHT22;6042;41.326;19.826;2022-09-01T11:03:49;31.00;92.10
11965;DHT22;6042;41.326;19.826;2022-09-01T11:06:57;31.00;92.60
11965;DHT22;6042;41.326;19.826;2022-09-01T11:10:12;31.20;92.50
11965;DHT22;6042;41.326;19.826;2022-09-01T11:13:35;31.20;92.50
11965;DHT22;6042;41.326;19.826;2022-09-01T11:16:30;31.50;92.10
11965;DHT22;6042;41.326;19.826;2022-09-01T11:19:32;31.50;91.70
11965;DHT22;6042;41.326;19.826;2022-09-01T11:22:10;31.70;91.90
11965;DHT22;6042;41.326;19.826;2022-09-01T11:24:50;32.00;91.70
11965;DHT22;6042;41.326;19.826;2022-09-01T11:27:58;32.30;90.60
11965;DHT22;6042;41.326;19.826;2022-09-01T11:30:46;32.20;90.30
11965;DHT22;6042;41.326;19.826;2022-09-01T11:33:37;32.30;90.60
11965;DHT22;6042;41.326;19.826;2022-09-01T11:36:13;32.70;90.20
11965;DHT22;6042;41.326;19.826;2022-09-01T11:38:47;33.00;90.30
11965;DHT22;6042;41.326;19.826;2022-09-01T11:41:25;33.00;87.20
11965;DHT22;6042;41.326;19.826;2022-09-01T11:44:00;33.00;88.60
11965;DHT22;6042;41.326;19.826;2022-09-01T11:46:32;33.00;86.90
11965;DHT22;6042;41.326;19.826;2022-09-01T11:49:05;33.00;86.60
11965;DHT22;6042;41.326;19.826;2022-09-01T11:51:43;33.00;84.90
11965;DHT22;6042;41.326;19.826;2022-09-01T11:54:15;32.70;84.30
11965;DHT22;6042;41.326;19.826;2022-09-01T11:56:43;32.70;83.90
11965;DHT22;6042;41.326;19.826;2022-09-01T11:59:12;32.80;83.50
11965;DHT22;6042;41.326;19.826;2022-09-01T12:01:40;32.80;83.90
11965;DHT22;6042;41.326;19.826;2022-09-01T12:04:20;32.70;82.00
11965;DHT22;6042;41.326;19.826;2022-09-01T12:06:55;32.60;81.50
11965;DHT22;6042;41.326;19.826;2022-09-01T12:09:34;31.90;82.30
11965;DHT22;6042;41.326;19.826;2022-09-01T12:12:04;31.70;82.80
11965;DHT22;6042;41.326;19.826;2022-09-01T12:14:34;31.70;83.60
11965;DHT22;6042;41.326;19.826;2022-09-01T12:17:23;31.70;83.30
11965;DHT22;6042;41.326;19.826;2022-09-01T12:20:23;31.70;83.40
11965;DHT22;6042;41.326;19.826;2022-09-01T12:22:57;31.60;85.10
11965;DHT22;6042;41.326;19.826;2022-09-01T12:25:29;31.50;85.50
11965;DHT22;6042;41.326;19.826;2022-09-01T12:27:59;31.40;88.20
11965;DHT22;6042;41.326;19.826;2022-09-01T12:30:29;31.20;89.70
11965;DHT22;6042;41.326;19.826;2022-09-01T12:33:05;31.10;90.20
11965;DHT22;6042;41.326;19.826;2022-09-01T12:35:50;31.00;90.40
11965;DHT22;6042;41.326;19.826;2022-09-01T12:38:28;31.10;90.30
11965;DHT22;6042;41.326;19.826;2022-09-01T12:40:59;31.00;90.30
11965;DHT22;6042;41.326;19.826;2022-09-01T12:43:30;31.00;90.50
11965;DHT22;6042;41.326;19.826;2022-09-01T12:45:59;30.90;90.10
11965;DHT22;6042;41.326;19.826;2022-09-01T12:48:32;30.90;90.10
11965;DHT22;6042;41.326;19.826;2022-09-01T12:51:04;30.70;90.20
11965;DHT22;6042;41.326;19.826;2022-09-01T12:53:35;30.60;90.00
11965;DHT22;6042;41.326;19.826;2022-09-01T12:56:19;30.50;90.30
11965;DHT22;6042;41.326;19.826;2022-09-01T12:58:50;30.50;90.40
11965;DHT22;6042;41.326;19.826;2022-09-01T13:01:32;30.50;90.20
11965;DHT22;6042;41.326;19.826;2022-09-01T13:04:23;30.80;90.10
11965;DHT22;6042;41.326;19.826;2022-09-01T13:06:55;31.10;89.50
11965;DHT22;6042;41.326;19.826;2022-09-01T13:09:23;30.80;89.40
11965;DHT22;6042;41.326;19.826;2022-09-01T13:12:08;30.90;89.60
11965;DHT22;6042;41.326;19.826;2022-09-01T13:14:37;31.00;89.00
11965;DHT22;6042;41.326;19.826;2022-09-01T13:17:06;31.10;88.90
11965;DHT22;6042;41.326;19.826;2022-09-01T13:19:40;31.20;87.90
11965;DHT22;6042;41.326;19.826;2022-09-01T13:22:09;31.60;87.50
11965;DHT22;6042;41.326;19.826;2022-09-01T13:24:39;31.80;86.60
11965;DHT22;6042;41.326;19.826;2022-09-01T13:27:08;31.40;86.40
11965;DHT22;6042;41.326;19.826;2022-09-01T13:29:47;31.10;86.70
11965;DHT22;6042;41.326;19.826;2022-09-01T13:32:16;31.60;86.70
11965;DHT22;6042;41.326;19.826;2022-09-01T13:34:48;31.60;85.20
11965;DHT22;6042;41.326;19.826;2022-09-01T13:37:18;31.50;85.60
11965;DHT22;6042;41.326;19.826;2022-09-01T13:39:47;31.80;84.30
11965;DHT22;6042;41.326;19.826;2022-09-01T13:42:18;32.00;83.70
11965;DHT22;6042;41.326;19.826;2022-09-01T13:44:47;32.00;83.20
11965;DHT22;6042;41.326;19.826;2022-09-01T13:47:21;31.70;83.50
11965;DHT22;6042;41.326;19.826;2022-09-01T13:49:58;31.40;84.00
11965;DHT22;6042;41.326;19.826;2022-09-01T13:52:39;31.20;84.90
11965;DHT22;6042;41.326;19.826;2022-09-01T13:55:09;31.60;83.90
11965;DHT22;6042;41.326;19.826;2022-09-01T13:57:41;31.40;82.90
11965;DHT22;6042;41.326;19.826;2022-09-01T14:00:12;31.30;83.30
11965;DHT22;6042;41.326;19.826;2022-09-01T14:02:44;31.20;83.70
11965;DHT22;6042;41.326;19.826;2022-09-01T14:05:18;31.20;84.00
11965;DHT22;6042;41.326;19.826;2022-09-01T14:07:47;31.00;82.80
11965;DHT22;6042;41.326;19.826;2022-09-01T14:10:18;30.90;84.10
11965;DHT22;6042;41.326;19.826;2022-09-01T14:12:49;30.80;84.80
11965;DHT22;6042;41.326;19.826;2022-09-01T14:15:19;31.00;85.20
11965;DHT22;6042;41.326;19.826;2022-09-01T14:17:54;30.80;85.00
11965;DHT22;6042;41.326;19.826;2022-09-01T14:20:25;30.50;85.10
11965;DHT22;6042;41.326;19.826;2022-09-01T14:22:55;30.50;84.20
11965;DHT22;6042;41.326;19.826;2022-09-01T14:25:23;30.40;85.00
11965;DHT22;6042;41.326;19.826;2022-09-01T14:27:54;30.30;85.60
11965;DHT22;6042;41.326;19.826;2022-09-01T14:30:24;30.30;85.70
11965;DHT22;6042;41.326;19.826;2022-09-01T14:32:58;30.20;85.40
11965;DHT22;6042;41.326;19.826;2022-09-01T14:35:27;30.10;85.90
11965;DHT22;6042;41.326;19.826;2022-09-01T14:38:01;29.90;86.50
11965;DHT22;6042;41.326;19.826;2022-09-01T14:40:31;29.90;89.20
11965;DHT22;6042;41.326;19.826;2022-09-01T14:43:02;29.60;90.50
11965;DHT22;6042;41.326;19.826;2022-09-01T14:45:30;29.30;91.10
11965;DHT22;6042;41.326;19.826;2022-09-01T14:48:00;29.20;91.40
11965;DHT22;6042;41.326;19.826;2022-09-01T14:50:29;29.00;91.60
11965;DHT22;6042;41.326;19.826;2022-09-01T14:53:01;29.00;91.60
11965;DHT22;6042;41.326;19.826;2022-09-01T14:55:30;29.10;91.90
11965;DHT22;6042;41.326;19.826;2022-09-01T14:57:59;29.00;92.00
11965;DHT22;6042;41.326;19.826;2022-09-01T15:00:30;29.00;91.90
11965;DHT22;6042;41.326;19.826;2022-09-01T15:03:02;29.00;92.10
11965;DHT22;6042;41.326;19.826;2022-09-01T15:05:30;29.10;91.90
11965;DHT22;6042;41.326;19.826;2022-09-01T15:08:05;29.20;91.60
11965;DHT22;6042;41.326;19.826;2022-09-01T15:10:34;29.30;91.80
11965;DHT22;6042;41.326;19.826;2022-09-01T15:13:03;29.50;91.20
11965;DHT22;6042;41.326;19.826;2022-09-01T15:15:33;29.50;90.20
11965;DHT22;6042;41.326;19.826;2022-09-01T15:18:02;29.60;90.20
11965;DHT22;6042;41.326;19.826;2022-09-01T15:20:31;29.60;90.50
11965;DHT22;6042;41.326;19.826;2022-09-01T15:23:19;29.60;90.50
11965;DHT22;6042;41.326;19.826;2022-09-01T15:25:51;29.50;90.70
11965;DHT22;6042;41.326;19.826;2022-09-01T15:28:20;29.40;90.80
11965;DHT22;6042;41.326;19.826;2022-09-01T15:30:50;29.30;91.40
11965;DHT22;6042;41.326;19.826;2022-09-01T15:33:20;29.40;91.50
11965;DHT22;6042;41.326;19.826;2022-09-01T15:35:49;29.40;91.20
11965;DHT22;6042;41.326;19.826;2022-09-01T15:38:20;29.20;91.50
11965;DHT22;6042;41.326;19.826;2022-09-01T15:40:54;29.20;91.70
11965;DHT22;6042;41.326;19.826;2022-09-01T15:43:26;29.00;92.00
11965;DHT22;6042;41.326;19.826;2022-09-01T15:45:57;28.90;92.20
11965;DHT22;6042;41.326;19.826;2022-09-01T15:48:30;28.80;92.50
11965;DHT22;6042;41.326;19.826;2022-09-01T15:51:16;28.70;92.40
11965;DHT22;6042;41.326;19.826;2022-09-01T15:53:56;28.60;92.90
11965;DHT22;6042;41.326;19.826;2022-09-01T15:56:26;28.50;93.30
11965;DHT22;6042;41.326;19.826;2022-09-01T15:58:55;28.40;93.40
11965;DHT22;6042;41.326;19.826;2022-09-01T16:01:30;28.30;93.60
11965;DHT22;6042;41.326;19.826;2022-09-01T16:04:02;28.40;94.00
11965;DHT22;6042;41.326;19.826;2022-09-01T16:06:32;28.50;94.20
11965;DHT22;6042;41.326;19.826;2022-09-01T16:09:00;28.50;94.20
11965;DHT22;6042;41.326;19.826;2022-09-01T16:11:29;28.40;94.30
11965;DHT22;6042;41.326;19.826;2022-09-01T16:13:58;28.30;94.40
11965;DHT22;6042;41.326;19.826;2022-09-01T16:16:40;28.20;94.50
11965;DHT22;6042;41.326;19.826;2022-09-01T16:19:26;28.20;94.70
11965;DHT22;6042;41.326;19.826;2022-09-01T16:22:04;28.20;94.80
11965;DHT22;6042;41.326;19.826;2022-09-01T16:24:40;28.10;94.90
11965;DHT22;6042;41.326;19.826;2022-09-01T16:27:13;28.10;95.20